Time;durP1;ratioP1;P1;durP2;ratioP2;P2;SDS_P1;SDS_P2;PMS_P1;PMS_P2;Temp;Humidity;BMP_temperature;BMP_pressure;BME280_temperature;BME280_humidity;BME280_pressure;Samples;Min_cycle;Max_cycle;Signal;HPM_P1;HPM_P2
2022/07/29 00:00:58;;;;;;;;;;;;;;;26.41;41.20;99821.28;4297245;33;19980;-85
2022/07/29 00:03:25;;;;;;;;;;;;;;;26.35;41.71;99821.59;4302921;33;20011;-85
2022/07/29 00:05:52;;;;;;;;;;;;;;;26.38;41.71;99826.75;4297778;33;20004;-85
2022/07/29 00:08:20;;;;;;;;;;;;;;;26.39;41.29;99823.19;4300873;33;20000;-83
2022/07/29 00:10:47;;;;;;;;;;;;;;;26.23;42.14;99824.88;4301001;33;20322;-87
2022/07/29 00:13:13;;;;;;;;;;;;;;;26.26;42.26;99823.84;4297613;33;20003;-84
2022/07/29 00:15:40;;;;;;;;;;;;;;;26.21;42.78;99829.38;4296140;33;20019;-86
2022/07/29 00:18:07;;;;;;;;;;;;;;;26.37;42.36;99825.03;4295464;33;20044;-85
2022/07/29 00:20:34;;;;;;;;;;;;;;;26.29;42.34;99827.25;4273170;33;20052;-84
2022/07/29 00:23:01;;;;;;;;;;;;;;;26.27;42.46;99829.09;4270276;33;20012;-84
2022/07/29 00:25:28;;;;;;;;;;;;;;;26.26;42.54;99819.44;4274791;33;20359;-86
2022/07/29 00:27:56;;;;;;;;;;;;;;;26.17;42.21;99828.69;4270163;33;20903;-85
2022/07/29 00:30:23;;;;;;;;;;;;;;;26.26;41.88;99832.69;4268831;33;19985;-85
2022/07/29 00:32:50;;;;;;;;;;;;;;;26.38;42.18;99824.09;4270088;33;20332;-87
2022/07/29 00:38:02;;;;;;;;;;;;;;;26.39;41.86;99831.16;4276398;33;20015;-86
2022/07/29 00:40:29;;;;;;;;;;;;;;;26.38;42.01;99826.75;4277365;33;19993;-86
2022/07/29 00:42:56;;;;;;;;;;;;;;;26.52;40.77;99822.62;4272565;33;20057;-85
2022/07/29 00:45:25;;;;;;;;;;;;;;;26.56;40.86;99821.53;4271689;33;19988;-85
2022/07/29 00:47:52;;;;;;;;;;;;;;;26.58;41.31;99819.63;4261175;33;19993;-85
2022/07/29 00:50:18;;;;;;;;;;;;;;;26.67;40.88;99816.50;4254296;33;19978;-84
2022/07/29 00:52:45;;;;;;;;;;;;;;;26.61;40.13;99822.12;4262244;33;19985;-84
2022/07/29 00:55:13;;;;;;;;;;;;;;;26.67;40.13;99819.16;4242449;33;19966;-84
2022/07/29 00:57:40;;;;;;;;;;;;;;;26.76;39.89;99824.00;4281744;33;20726;-85
2022/07/29 01:00:09;;;;;;;;;;;;;;;26.80;38.96;99814.97;4288505;33;19995;-84
2022/07/29 01:02:36;;;;;;;;;;;;;;;26.83;38.75;99820.09;4297004;33;20306;-84
2022/07/29 01:05:04;;;;;;;;;;;;;;;26.86;38.38;99825.25;4296761;33;19981;-84
2022/07/29 01:07:32;;;;;;;;;;;;;;;26.92;38.16;99812.59;4291412;33;20004;-84
2022/07/29 01:09:58;;;;;;;;;;;;;;;26.94;38.17;99813.41;4282501;33;19977;-85
2022/07/29 01:12:26;;;;;;;;;;;;;;;26.94;38.00;99813.41;4286946;33;20732;-85
2022/07/29 01:14:53;;;;;;;;;;;;;;;27.13;37.93;99814.16;4284826;33;19981;-83
2022/07/29 01:17:27;;;;;;;;;;;;;;;26.97;38.01;99802.59;4280872;33;20003;-84
2022/07/29 01:20:07;;;;;;;;;;;;;;;27.14;37.69;99807.91;4288696;33;20055;-84
2022/07/29 01:22:34;;;;;;;;;;;;;;;27.08;37.72;99813.50;4274749;33;20020;-84
2022/07/29 01:25:11;;;;;;;;;;;;;;;27.11;37.52;99813.34;4259094;33;19982;-86
2022/07/29 01:27:41;;;;;;;;;;;;;;;27.22;37.47;99813.69;4253758;33;20380;-84
2022/07/29 01:30:10;;;;;;;;;;;;;;;27.21;37.37;99806.62;4252524;33;20038;-84
2022/07/29 01:32:39;;;;;;;;;;;;;;;27.26;37.35;99809.06;4259432;33;19986;-85
2022/07/29 01:35:10;;;;;;;;;;;;;;;27.17;37.60;99799.78;4254600;33;20320;-84
2022/07/29 01:37:37;;;;;;;;;;;;;;;27.30;37.35;99810.63;4252191;33;20336;-85
2022/07/29 01:40:04;;;;;;;;;;;;;;;27.23;37.26;99804.78;4259755;33;20091;-85
2022/07/29 01:42:34;;;;;;;;;;;;;;;27.35;36.96;99804.13;4259072;33;20360;-84
2022/07/29 01:45:04;;;;;;;;;;;;;;;27.25;37.24;99808.22;4252392;33;19982;-84
2022/07/29 01:47:35;;;;;;;;;;;;;;;27.12;37.33;99810.63;4253834;33;19985;-84
2022/07/29 01:50:03;;;;;;;;;;;;;;;27.27;37.05;99801.00;4259813;33;20036;-85
2022/07/29 01:52:34;;;;;;;;;;;;;;;27.24;37.19;99801.16;4252565;33;19997;-83
2022/07/29 01:55:04;;;;;;;;;;;;;;;27.24;37.17;99805.63;4252230;33;20005;-83
2022/07/29 01:57:31;;;;;;;;;;;;;;;27.31;36.87;99802.56;4256168;33;20034;-83
2022/07/29 01:59:58;;;;;;;;;;;;;;;27.38;37.04;99803.09;4265386;33;20023;-84
2022/07/29 02:02:26;;;;;;;;;;;;;;;27.36;37.00;99800.50;4261857;33;20839;-84
2022/07/29 02:04:53;;;;;;;;;;;;;;;27.22;37.23;99797.75;4256239;33;19973;-83
2022/07/29 02:07:21;;;;;;;;;;;;;;;27.33;37.29;99800.69;4253307;33;19977;-84
2022/07/29 02:09:50;;;;;;;;;;;;;;;27.31;37.20;99807.91;4267672;33;20012;-84
2022/07/29 02:12:18;;;;;;;;;;;;;;;27.35;37.10;99803.28;4295204;33;20036;-85
2022/07/29 02:17:39;;;;;;;;;;;;;;;27.24;37.52;99801.16;4296984;33;19996;-83
2022/07/29 02:20:06;;;;;;;;;;;;;;;27.31;37.39;99796.38;4304412;33;20257;-83
2022/07/29 02:22:33;;;;;;;;;;;;;;;27.37;37.41;99796.91;4308078;33;19980;-82
2022/07/29 02:25:00;;;;;;;;;;;;;;;27.35;37.17;99788.16;4302471;33;20003;-84
2022/07/29 02:27:29;;;;;;;;;;;;;;;27.33;37.50;99790.03;4310707;33;19985;-85
2022/07/29 02:29:56;;;;;;;;;;;;;;;27.40;37.92;99795.03;4309448;33;20055;-83
2022/07/29 02:32:23;;;;;;;;;;;;;;;27.34;37.26;99791.75;4299193;33;20011;-85
2022/07/29 02:34:50;;;;;;;;;;;;;;;27.33;37.48;99783.88;4300691;33;19994;-84
2022/07/29 02:37:17;;;;;;;;;;;;;;;27.28;38.02;99792.09;4301102;33;20003;-83
2022/07/29 02:39:44;;;;;;;;;;;;;;;27.21;38.44;99790.69;4296455;33;20315;-84
2022/07/29 02:42:12;;;;;;;;;;;;;;;27.22;38.60;99791.53;4301430;33;20006;-83
2022/07/29 02:44:39;;;;;;;;;;;;;;;27.18;37.96;99788.19;4296158;33;19976;-84
2022/07/29 02:47:06;;;;;;;;;;;;;;;27.09;38.58;99791.31;4301032;33;19984;-84
2022/07/29 02:49:45;;;;;;;;;;;;;;;27.01;39.25;99793.53;4301962;33;19991;-84
2022/07/29 02:52:15;;;;;;;;;;;;;;;27.08;38.96;99786.94;4295900;33;19999;-85
2022/07/29 02:54:46;;;;;;;;;;;;;;;27.10;38.94;99787.72;4296304;33;19984;-85
2022/07/29 02:57:15;;;;;;;;;;;;;;;27.10;39.11;99787.72;4304381;33;20003;-85
2022/07/29 02:59:42;;;;;;;;;;;;;;;27.01;38.66;99796.19;4308974;33;19999;-85
2022/07/29 03:02:09;;;;;;;;;;;;;;;27.06;39.18;99792.34;4302547;33;19996;-83
2022/07/29 03:04:36;;;;;;;;;;;;;;;27.06;39.10;99789.69;4295890;33;20023;-85
2022/07/29 03:07:05;;;;;;;;;;;;;;;27.06;39.00;99786.19;4296257;33;19977;-82
2022/07/29 03:09:31;;;;;;;;;;;;;;;27.07;38.31;99787.91;4301917;33;19993;-83
2022/07/29 03:12:00;;;;;;;;;;;;;;;27.06;39.19;99786.19;4297553;33;19984;-82
2022/07/29 03:14:26;;;;;;;;;;;;;;;27.06;39.05;99796.81;4295959;33;20028;-82
2022/07/29 03:16:53;;;;;;;;;;;;;;;27.05;39.20;99800.41;4303726;33;19991;-83
2022/07/29 03:19:20;;;;;;;;;;;;;;;26.94;38.84;99786.81;4298464;33;19984;-84
2022/07/29 03:21:47;;;;;;;;;;;;;;;26.94;38.99;99793.00;4297741;33;19992;-85
2022/07/29 03:24:33;;;;;;;;;;;;;;;26.82;38.87;99788.31;4297793;33;19976;-83
2022/07/29 03:27:02;;;;;;;;;;;;;;;26.87;38.80;99792.47;4303297;33;19984;-83
2022/07/29 03:29:29;;;;;;;;;;;;;;;26.95;39.04;99800.00;4298091;33;20039;-84
2022/07/29 03:32:03;;;;;;;;;;;;;;;26.98;39.62;99793.69;4304321;33;20024;-82
2022/07/29 03:34:34;;;;;;;;;;;;;;;26.95;39.31;99796.50;4298064;33;20727;-83
2022/07/29 03:37:01;;;;;;;;;;;;;;;26.88;39.39;99794.16;4297819;33;20291;-81
2022/07/29 03:39:29;;;;;;;;;;;;;;;26.89;38.72;99795.87;4300862;33;19992;-83
2022/07/29 03:41:56;;;;;;;;;;;;;;;26.86;39.19;99796.03;4303705;33;19981;-83
2022/07/29 03:44:23;;;;;;;;;;;;;;;26.85;39.44;99799.62;4296404;33;20394;-83
2022/07/29 03:46:51;;;;;;;;;;;;;;;26.92;39.11;99799.31;4296754;33;20007;-86
2022/07/29 03:49:18;;;;;;;;;;;;;;;26.87;38.91;99795.13;4280567;33;20052;-83
2022/07/29 03:51:45;;;;;;;;;;;;;;;26.89;39.53;99797.69;4273214;33;19985;-83
2022/07/29 03:54:12;;;;;;;;;;;;;;;26.85;39.56;99794.31;4269941;33;20011;-83
2022/07/29 03:56:40;;;;;;;;;;;;;;;26.81;39.44;99792.78;4287640;33;20016;-84
2022/07/29 03:59:07;;;;;;;;;;;;;;;26.90;39.14;99792.31;4280582;33;20023;-84
2022/07/29 04:01:34;;;;;;;;;;;;;;;26.74;39.55;99802.00;4280990;33;20164;-82
2022/07/29 04:04:01;;;;;;;;;;;;;;;26.78;39.60;99802.69;3965411;33;10000961;-83
2022/07/29 04:06:28;;;;;;;;;;;;;;;26.82;39.70;99799.78;4254614;33;20237;-84
2022/07/29 04:08:55;;;;;;;;;;;;;;;26.77;40.06;99801.84;4259220;33;20609;-83
2022/07/29 04:11:22;;;;;;;;;;;;;;;26.83;39.61;99806.81;4262808;33;20367;-83
2022/07/29 04:13:49;;;;;;;;;;;;;;;26.85;39.42;99809.41;4256209;33;19993;-82
2022/07/29 04:16:16;;;;;;;;;;;;;;;26.89;39.47;99806.50;4254643;33;20321;-84
2022/07/29 04:18:43;;;;;;;;;;;;;;;26.77;40.26;99809.81;4260822;33;20039;-85
2022/07/29 04:21:09;;;;;;;;;;;;;;;26.82;40.32;99805.09;4268809;33;19993;-84
2022/07/29 04:23:36;;;;;;;;;;;;;;;26.90;40.47;99805.59;4268439;33;20013;-84
2022/07/29 04:26:19;;;;;;;;;;;;;;;26.85;40.14;99804.94;4263877;33;20376;-85
2022/07/29 04:28:46;;;;;;;;;;;;;;;26.87;39.86;99802.22;4258161;33;19986;-85
2022/07/29 04:31:13;;;;;;;;;;;;;;;26.85;40.08;99799.62;4254525;33;20800;-84
2022/07/29 04:33:40;;;;;;;;;;;;;;;26.77;40.02;99799.19;4256168;33;20000;-84
2022/07/29 04:36:07;;;;;;;;;;;;;;;26.85;39.88;99806.75;4253002;33;20012;-81
2022/07/29 04:38:54;;;;;;;;;;;;;;;26.88;40.70;99807.44;4290949;33;19984;-84
2022/07/29 04:41:21;;;;;;;;;;;;;;;26.77;39.89;99807.16;4290172;33;19998;-81
2022/07/29 04:43:48;;;;;;;;;;;;;;;26.93;39.75;99811.66;4289066;33;20448;-79
2022/07/29 04:46:17;;;;;;;;;;;;;;;26.87;40.00;99805.75;4261909;33;19988;-79
2022/07/29 04:48:45;;;;;;;;;;;;;;;26.87;39.95;99808.41;4282445;33;20045;-81
2022/07/29 04:51:12;;;;;;;;;;;;;;;26.92;40.01;99804.63;4282968;33;20044;-81
2022/07/29 04:53:39;;;;;;;;;;;;;;;26.92;40.20;99807.28;4290096;33;19988;-80
2022/07/29 04:56:06;;;;;;;;;;;;;;;26.99;40.39;99808.69;4285743;33;20359;-80
2022/07/29 04:58:36;;;;;;;;;;;;;;;27.05;40.07;99806.56;4285798;33;20036;-80
2022/07/29 05:01:04;;;;;;;;;;;;;;;26.90;39.97;99805.59;4282755;33;19981;-82
2022/07/29 05:03:31;;;;;;;;;;;;;;;27.07;40.38;99803.84;4289369;33;20419;-80
2022/07/29 05:05:57;;;;;;;;;;;;;;;27.16;39.61;99800.72;4285831;33;20059;-80
2022/07/29 05:08:24;;;;;;;;;;;;;;;27.22;39.82;99813.69;4287287;33;19972;-80
2022/07/29 05:10:51;;;;;;;;;;;;;;;27.14;39.57;99805.25;4282247;33;20016;-80
2022/07/29 05:13:18;;;;;;;;;;;;;;;27.17;39.90;99805.09;4287442;33;20052;-79
2022/07/29 05:15:45;;;;;;;;;;;;;;;27.28;39.97;99813.38;4289674;33;19977;-80
2022/07/29 05:18:12;;;;;;;;;;;;;;;27.28;39.13;99815.16;4283681;33;20005;-80
2022/07/29 05:20:39;;;;;;;;;;;;;;;27.30;39.02;99808.81;4286563;33;20036;-79
2022/07/29 05:23:06;;;;;;;;;;;;;;;27.41;38.96;99807.38;4286609;33;20735;-79
2022/07/29 05:25:33;;;;;;;;;;;;;;;27.39;39.51;99809.28;4289187;33;19973;-81
2022/07/29 05:28:10;;;;;;;;;;;;;;;27.30;39.33;99811.47;4281916;33;20335;-81
2022/07/29 05:30:36;;;;;;;;;;;;;;;27.33;39.45;99811.31;4283371;33;20060;-80
2022/07/29 05:33:03;;;;;;;;;;;;;;;27.41;39.27;99810.03;4285332;33;20354;-81
2022/07/29 05:35:30;;;;;;;;;;;;;;;27.33;39.38;99805.13;4282907;33;20315;-80
2022/07/29 05:37:57;;;;;;;;;;;;;;;27.37;38.95;99814.66;4289812;33;20356;-81
2022/07/29 05:40:25;;;;;;;;;;;;;;;27.46;39.00;99815.97;4285319;33;20319;-82
2022/07/29 05:42:52;;;;;;;;;;;;;;;27.50;38.70;99812.19;4291867;33;20032;-82
2022/07/29 05:45:19;;;;;;;;;;;;;;;27.52;38.47;99805.84;4286219;33;19973;-82
2022/07/29 05:47:45;;;;;;;;;;;;;;;27.44;38.39;99813.41;4289241;33;19977;-83
2022/07/29 05:50:12;;;;;;;;;;;;;;;27.49;38.34;99815.81;4285331;33;20023;-82
2022/07/29 05:52:39;;;;;;;;;;;;;;;27.63;38.08;99821.22;4281180;33;20382;-82
2022/07/29 05:55:06;;;;;;;;;;;;;;;27.46;38.03;99815.97;4282183;33;19985;-83
2022/07/29 05:57:33;;;;;;;;;;;;;;;27.55;37.76;99823.44;4284228;33;20502;-82
2022/07/29 06:00:00;;;;;;;;;;;;;;;27.44;38.46;99823.16;4280972;33;20858;-83
2022/07/29 06:02:27;;;;;;;;;;;;;;;27.63;37.91;99818.56;4282351;33;20029;-83
2022/07/29 06:04:54;;;;;;;;;;;;;;;27.73;38.49;99822.44;4282391;33;19992;-83
2022/07/29 06:07:21;;;;;;;;;;;;;;;27.68;38.34;99821.84;4289704;33;20002;-81
2022/07/29 06:09:48;;;;;;;;;;;;;;;27.78;37.73;99822.22;4281933;33;20067;-80
2022/07/29 06:12:15;;;;;;;;;;;;;;;27.74;38.10;99820.66;4289865;33;20270;-81
2022/07/29 06:14:41;;;;;;;;;;;;;;;27.94;37.91;99824.88;4294666;33;19984;-81
2022/07/29 06:17:11;;;;;;;;;;;;;;;27.94;38.01;99822.22;4292410;33;19999;-83
2022/07/29 06:19:38;;;;;;;;;;;;;;;27.96;37.66;99831.00;4296375;33;20527;-81
2022/07/29 06:22:05;;;;;;;;;;;;;;;28.08;37.73;99827.63;4289477;33;20047;-82
2022/07/29 06:24:32;;;;;;;;;;;;;;;27.98;38.01;99835.28;4282042;33;19977;-81
2022/07/29 06:26:59;;;;;;;;;;;;;;;27.83;38.11;99829.97;4282272;33;19984;-80
2022/07/29 06:29:25;;;;;;;;;;;;;;;28.20;37.48;99834.91;4289544;33;20822;-81
2022/07/29 06:31:52;;;;;;;;;;;;;;;28.36;37.53;99828.72;4281908;33;20390;-81
2022/07/29 06:34:19;;;;;;;;;;;;;;;28.40;37.71;99831.16;4285154;33;20000;-81
2022/07/29 06:36:46;;;;;;;;;;;;;;;28.72;37.18;99836.41;4296111;33;20053;-82
2022/07/29 06:39:14;;;;;;;;;;;;;;;29.14;36.39;99838.31;4295858;33;20007;-82
2022/07/29 06:41:41;;;;;;;;;;;;;;;29.40;35.82;99846.53;4303949;33;20006;-81
2022/07/29 06:44:11;;;;;;;;;;;;;;;29.70;35.29;99845.59;4295944;33;19972;-82
2022/07/29 06:46:38;;;;;;;;;;;;;;;29.86;34.46;99844.50;4298287;33;19980;-81
2022/07/29 06:49:05;;;;;;;;;;;;;;;30.05;34.86;99849.53;4304517;33;19980;-82
2022/07/29 06:51:32;;;;;;;;;;;;;;;30.43;33.78;99846.19;4297262;33;19996;-82
2022/07/29 06:54:00;;;;;;;;;;;;;;;30.55;33.35;99845.38;4306198;33;20023;-80
2022/07/29 06:56:30;;;;;;;;;;;;;;;30.73;32.88;99843.31;4299417;33;19996;-80
2022/07/29 06:58:57;;;;;;;;;;;;;;;30.87;32.78;99839.72;4304303;33;20397;-81
2022/07/29 07:01:24;;;;;;;;;;;;;;;30.87;32.57;99839.72;4283892;33;20445;-81
2022/07/29 07:03:51;;;;;;;;;;;;;;;31.16;32.25;99839.53;4289071;33;19991;-81
2022/07/29 07:06:18;;;;;;;;;;;;;;;31.13;32.92;99839.75;4274813;33;20044;-80
2022/07/29 07:08:44;;;;;;;;;;;;;;;31.47;31.83;99839.13;4291312;33;19980;-81
2022/07/29 07:11:12;;;;;;;;;;;;;;;31.77;31.72;99845.94;4295856;33;19984;-82
2022/07/29 07:13:39;;;;;;;;;;;;;;;31.99;32.03;99841.72;4288852;33;20007;-81
2022/07/29 07:16:06;;;;;;;;;;;;;;;31.90;31.72;99835.22;4282004;33;20056;-80
2022/07/29 07:18:33;;;;;;;;;;;;;;;32.00;31.26;99830.03;4284098;33;19980;-82
2022/07/29 07:21:00;;;;;;;;;;;;;;;31.91;31.33;99840.47;4288571;33;20003;-82
2022/07/29 07:23:27;;;;;;;;;;;;;;;31.91;31.13;99837.78;4289500;33;19969;-81
2022/07/29 07:25:54;;;;;;;;;;;;;;;31.82;32.05;99833.06;4283412;33;19985;-84
2022/07/29 07:28:20;;;;;;;;;;;;;;;31.89;32.62;99839.72;4287914;33;20023;-81
2022/07/29 07:30:51;;;;;;;;;;;;;;;32.48;30.86;99840.78;4285507;33;19985;-81
2022/07/29 07:33:18;;;;;;;;;;;;;;;32.50;31.10;99838.88;4290726;33;20000;-82
2022/07/29 07:35:45;;;;;;;;;;;;;;;32.59;30.65;99844.38;4283553;33;19985;-82
2022/07/29 07:38:12;;;;;;;;;;;;;;;33.09;30.37;99837.00;4282539;33;19981;-82
2022/07/29 07:40:39;;;;;;;;;;;;;;;33.33;29.11;99834.22;4286950;33;19989;-81
2022/07/29 07:43:06;;;;;;;;;;;;;;;33.54;29.86;99834.37;4291271;33;19984;-82
2022/07/29 07:45:33;;;;;;;;;;;;;;;33.30;30.39;99829.09;4283049;33;20032;-83
2022/07/29 07:48:03;;;;;;;;;;;;;;;33.71;29.35;99833.03;4283311;33;20026;-81
2022/07/29 07:50:29;;;;;;;;;;;;;;;33.80;28.19;99832.28;4282671;33;20327;-81
2022/07/29 07:52:57;;;;;;;;;;;;;;;34.26;27.33;99833.91;3992698;33;10000422;-82
2022/07/29 07:55:25;;;;;;;;;;;;;;;34.07;28.29;99839.09;4282231;33;19989;-82
2022/07/29 07:57:52;;;;;;;;;;;;;;;34.33;27.41;99833.41;4280997;33;20004;-81
2022/07/29 08:00:19;;;;;;;;;;;;;;;34.30;27.91;99830.97;4281510;33;20343;-79
2022/07/29 08:02:49;;;;;;;;;;;;;;;34.23;28.66;99828.78;4286368;33;19976;-79
2022/07/29 08:05:17;;;;;;;;;;;;;;;34.67;27.11;99828.78;4289184;33;19991;-83
2022/07/29 08:07:45;;;;;;;;;;;;;;;34.68;27.74;99825.94;4288773;33;19999;-80
2022/07/29 08:10:12;;;;;;;;;;;;;;;34.97;27.08;99827.97;4294685;33;20041;-78
2022/07/29 08:12:39;;;;;;;;;;;;;;;34.80;28.41;99825.91;4288863;33;20003;-80
2022/07/29 08:15:07;;;;;;;;;;;;;;;35.01;26.84;99821.38;4282923;33;19985;-80
2022/07/29 08:17:34;;;;;;;;;;;;;;;34.96;26.97;99826.28;4282528;33;20049;-80
2022/07/29 08:20:01;;;;;;;;;;;;;;;34.56;28.89;99828.81;4283962;33;20323;-80
2022/07/29 08:22:28;;;;;;;;;;;;;;;35.18;26.83;99826.16;4288926;33;20405;-82
2022/07/29 08:24:56;;;;;;;;;;;;;;;35.37;26.97;99824.56;4282500;33;19973;-84
2022/07/29 08:27:23;;;;;;;;;;;;;;;35.53;26.88;99819.56;4289582;33;20000;-82
2022/07/29 08:30:09;;;;;;;;;;;;;;;35.66;25.76;99818.47;4297328;33;19998;-84
2022/07/29 08:32:37;;;;;;;;;;;;;;;35.67;26.58;99822.84;4289907;33;19997;-82
2022/07/29 08:35:22;;;;;;;;;;;;;;;35.47;26.54;99820.06;4283120;33;19983;-81
2022/07/29 08:37:49;;;;;;;;;;;;;;;35.59;25.53;99812.78;4289592;33;20032;-81
2022/07/29 08:40:16;;;;;;;;;;;;;;;35.31;27.06;99817.03;4285534;33;19995;-80
2022/07/29 08:42:43;;;;;;;;;;;;;;;35.87;25.45;99819.25;4289274;33;20294;-80
2022/07/29 08:45:10;;;;;;;;;;;;;;;35.92;25.38;99825.06;4290982;33;19973;-81
2022/07/29 08:47:39;;;;;;;;;;;;;;;36.08;24.79;99813.78;4282648;33;19995;-80
2022/07/29 08:50:07;;;;;;;;;;;;;;;36.28;25.17;99820.03;4265669;33;19993;-79
2022/07/29 08:52:35;;;;;;;;;;;;;;;36.40;24.78;99823.44;4287722;33;19999;-81
2022/07/29 08:55:03;;;;;;;;;;;;;;;35.88;25.69;99812.00;4285330;33;19997;-80
2022/07/29 08:57:30;;;;;;;;;;;;;;;36.25;24.15;99801.44;4288080;33;19980;-80
2022/07/29 08:59:59;;;;;;;;;;;;;;;36.29;23.96;99805.56;4294205;33;20044;-80
2022/07/29 09:02:35;;;;;;;;;;;;;;;36.53;23.78;99808.69;4285536;33;19999;-80
2022/07/29 09:05:02;;;;;;;;;;;;;;;36.80;23.06;99815.22;4292523;33;19984;-81
2022/07/29 09:07:29;;;;;;;;;;;;;;;36.61;24.02;99805.31;4285317;33;19985;-81
2022/07/29 09:10:01;;;;;;;;;;;;;;;36.54;24.12;99806.88;4283071;33;19997;-81
2022/07/29 09:12:28;;;;;;;;;;;;;;;36.46;23.53;99807.53;4289189;33;20346;-81
2022/07/29 09:15:00;;;;;;;;;;;;;;;36.36;24.91;99806.69;4282144;33;19976;-81
2022/07/29 09:17:43;;;;;;;;;;;;;;;36.53;23.82;99802.47;4282699;33;19996;-81
2022/07/29 09:20:11;;;;;;;;;;;;;;;36.57;23.59;99798.50;4288379;33;19992;-80
2022/07/29 09:22:38;;;;;;;;;;;;;;;36.82;23.59;99799.72;4288966;33;19988;-80
2022/07/29 09:25:08;;;;;;;;;;;;;;;37.03;23.13;99793.31;4282515;33;20276;-80
2022/07/29 09:27:35;;;;;;;;;;;;;;;36.97;22.61;99800.97;4288618;33;20000;-80
2022/07/29 09:30:03;;;;;;;;;;;;;;;37.21;21.72;99788.88;4297295;33;20326;-81
2022/07/29 09:32:31;;;;;;;;;;;;;;;37.04;23.83;99795.03;4295680;33;20041;-81
2022/07/29 09:35:14;;;;;;;;;;;;;;;37.19;23.51;99788.16;4295528;33;19995;-80
2022/07/29 09:37:41;;;;;;;;;;;;;;;37.46;22.28;99785.53;4294026;33;20044;-80
2022/07/29 09:40:15;;;;;;;;;;;;;;;36.81;23.58;99784.53;4290601;33;20028;-81
2022/07/29 09:42:42;;;;;;;;;;;;;;;37.16;22.86;99785.75;4290887;33;20680;-81
2022/07/29 09:45:10;;;;;;;;;;;;;;;37.05;23.15;99785.91;4291780;33;19988;-81
2022/07/29 09:47:57;;;;;;;;;;;;;;;37.26;21.93;99778.47;4282243;33;19995;-80
2022/07/29 09:50:34;;;;;;;;;;;;;;;37.74;22.31;99776.53;4282455;33;20028;-80
2022/07/29 09:53:01;;;;;;;;;;;;;;;37.44;21.91;99776.69;4282454;33;19984;-80
2022/07/29 09:55:28;;;;;;;;;;;;;;;37.31;22.81;99770.78;4282630;33;20330;-81
2022/07/29 09:57:55;;;;;;;;;;;;;;;37.31;21.94;99765.37;4282153;33;20386;-81
2022/07/29 10:00:22;;;;;;;;;;;;;;;37.54;23.02;99767.72;4289400;33;19996;-82
2022/07/29 10:02:50;;;;;;;;;;;;;;;37.63;21.42;99764.09;4282152;33;19980;-83
2022/07/29 10:05:24;;;;;;;;;;;;;;;37.74;21.79;99763.88;4282945;33;20020;-82
2022/07/29 10:07:52;;;;;;;;;;;;;;;37.71;21.09;99772.28;4290475;33;20401;-83
2022/07/29 10:10:26;;;;;;;;;;;;;;;37.53;21.83;99766.03;4294880;33;19976;-83
2022/07/29 10:12:59;;;;;;;;;;;;;;;37.33;22.82;99752.56;4296614;33;19997;-82
2022/07/29 10:15:40;;;;;;;;;;;;;;;37.78;21.60;99762.59;4293949;33;20805;-83
2022/07/29 10:18:08;;;;;;;;;;;;;;;37.64;21.36;99761.25;4288021;33;20006;-82
2022/07/29 10:20:35;;;;;;;;;;;;;;;37.78;22.35;99767.13;4296941;33;20002;-83
2022/07/29 10:23:02;;;;;;;;;;;;;;;37.15;20.80;99754.38;4289993;33;19991;-83
2022/07/29 10:25:29;;;;;;;;;;;;;;;38.00;19.50;99755.06;4281922;33;20360;-84
2022/07/29 10:27:56;;;;;;;;;;;;;;;38.17;19.81;99756.09;4282091;33;20043;-83
2022/07/29 10:30:24;;;;;;;;;;;;;;;38.32;19.42;99749.97;4282288;33;20011;-83
2022/07/29 10:32:54;;;;;;;;;;;;;;;38.25;19.65;99754.28;4282508;33;20003;-82
2022/07/29 10:35:21;;;;;;;;;;;;;;;38.29;19.92;99752.97;4286747;33;20012;-84
2022/07/29 10:37:48;;;;;;;;;;;;;;;38.02;19.38;99737.69;4281106;33;20092;-83
2022/07/29 10:43:22;;;;;;;;;;;;;;;37.92;19.91;99742.31;4292682;33;19992;-83
2022/07/29 10:45:55;;;;;;;;;;;;;;;38.44;19.33;99736.22;4290104;33;19973;-83
2022/07/29 10:48:23;;;;;;;;;;;;;;;38.32;19.19;99733.75;4283871;33;20025;-84
2022/07/29 10:50:55;;;;;;;;;;;;;;;38.23;19.41;99734.69;4286099;33;20019;-83
2022/07/29 10:53:23;;;;;;;;;;;;;;;38.25;18.82;99727.25;4288514;33;20012;-83
2022/07/29 10:55:51;;;;;;;;;;;;;;;38.42;19.07;99732.81;4273379;33;19996;-83
2022/07/29 10:58:20;;;;;;;;;;;;;;;38.51;18.91;99724.59;4284294;33;20003;-83
2022/07/29 11:00:47;;;;;;;;;;;;;;;38.45;19.53;99721.66;4285810;33;20032;-83
2022/07/29 11:03:34;;;;;;;;;;;;;;;38.63;18.98;99725.19;4283264;33;20350;-83
2022/07/29 11:06:01;;;;;;;;;;;;;;;37.91;20.19;99719.84;4289865;33;19976;-85
2022/07/29 11:08:34;;;;;;;;;;;;;;;38.04;20.06;99729.44;4294784;33;19992;-84
2022/07/29 11:11:19;;;;;;;;;;;;;;;38.50;19.53;99716.66;4154959;33;20581;-83
2022/07/29 11:13:53;;;;;;;;;;;;;;;38.38;19.11;99713.34;4286942;33;20015;-84
2022/07/29 11:16:23;;;;;;;;;;;;;;;38.25;18.96;99711.00;4283567;33;20087;-83
2022/07/29 11:19:09;;;;;;;;;;;;;;;38.63;18.41;99706.25;4286421;33;19989;-82
2022/07/29 11:21:37;;;;;;;;;;;;;;;38.06;20.55;99711.19;4281866;33;19992;-81
2022/07/29 11:24:53;;;;;;;;;;;;;;;37.81;20.66;99705.50;4287556;33;19976;-81
2022/07/29 11:27:21;;;;;;;;;;;;;;;37.65;20.29;99697.25;4292330;33;19988;-80
2022/07/29 11:29:49;;;;;;;;;;;;;;;36.81;21.29;99709.00;4294122;33;20522;-80
2022/07/29 11:32:19;;;;;;;;;;;;;;;36.64;21.96;99701.69;4291236;33;20801;-80
2022/07/29 11:34:50;;;;;;;;;;;;;;;36.47;21.34;99696.00;4276016;33;20041;-79
2022/07/29 11:37:17;;;;;;;;;;;;;;;36.83;20.95;99689.97;4267223;33;19989;-79
2022/07/29 11:39:46;;;;;;;;;;;;;;;36.93;20.82;99686.22;4270363;33;19977;-79
2022/07/29 11:42:19;;;;;;;;;;;;;;;37.13;20.32;99686.16;4276291;33;19981;-80
2022/07/29 11:45:08;;;;;;;;;;;;;;;37.43;20.04;99677.75;4270197;33;20064;-80
2022/07/29 11:48:00;;;;;;;;;;;;;;;37.73;19.87;99669.47;4281245;33;19985;-81
2022/07/29 11:50:47;;;;;;;;;;;;;;;38.00;19.35;99685.62;4281910;33;20000;-79
2022/07/29 11:53:14;;;;;;;;;;;;;;;37.76;20.06;99683.53;4281703;33;20334;-79
2022/07/29 11:55:41;;;;;;;;;;;;;;;37.84;19.27;99675.47;4278645;33;19993;-80
2022/07/29 11:58:21;;;;;;;;;;;;;;;37.16;20.58;99675.06;4271129;33;20313;-80
2022/07/29 12:00:52;;;;;;;;;;;;;;;37.12;20.68;99679.09;4269956;33;20032;-79
2022/07/29 12:03:39;;;;;;;;;;;;;;;36.79;23.75;99684.00;4277211;33;20840;-80
2022/07/29 12:06:13;;;;;;;;;;;;;;;37.03;20.67;99675.41;4275088;33;19980;-81
2022/07/29 12:08:42;;;;;;;;;;;;;;;36.80;20.81;99669.53;4267181;33;19977;-81
2022/07/29 12:11:16;;;;;;;;;;;;;;;36.42;21.53;99671.31;4267267;33;19993;-82
2022/07/29 12:13:47;;;;;;;;;;;;;;;36.30;21.81;99667.06;4267921;33;20007;-81
2022/07/29 12:16:15;;;;;;;;;;;;;;;36.88;20.95;99666.94;4285990;33;20036;-80
2022/07/29 12:18:56;;;;;;;;;;;;;;;36.90;22.01;99664.09;4287819;33;20048;-80
2022/07/29 12:21:23;;;;;;;;;;;;;;;37.46;20.22;99655.88;4274731;33;946076;-80
2022/07/29 12:23:55;;;;;;;;;;;;;;;37.52;19.43;99658.97;4290023;33;20008;-80
2022/07/29 12:26:27;;;;;;;;;;;;;;;37.53;20.19;99655.28;4305365;33;19985;-80
2022/07/29 12:28:55;;;;;;;;;;;;;;;37.76;20.22;99653.81;4299614;33;20001;-79
2022/07/29 12:31:22;;;;;;;;;;;;;;;37.64;18.85;99641.53;4301678;33;19984;-79
2022/07/29 12:34:10;;;;;;;;;;;;;;;37.65;19.44;99640.50;4315657;33;21473;-79
2022/07/29 12:36:37;;;;;;;;;;;;;;;37.51;20.29;99631.09;4302313;33;20361;-80
2022/07/29 12:39:04;;;;;;;;;;;;;;;37.13;20.53;99633.03;4301712;33;20024;-79
2022/07/29 12:41:32;;;;;;;;;;;;;;;37.09;20.19;99636.19;4305377;33;20324;-79
2022/07/29 12:43:59;;;;;;;;;;;;;;;36.73;19.89;99630.66;4318195;33;20848;-81
2022/07/29 12:46:26;;;;;;;;;;;;;;;37.26;20.17;99621.88;4318610;33;19984;-81
2022/07/29 12:48:58;;;;;;;;;;;;;;;36.88;20.35;99623.75;4300691;33;20006;-81
2022/07/29 12:51:29;;;;;;;;;;;;;;;36.99;20.45;99620.91;4314040;33;19976;-81
2022/07/29 12:54:10;;;;;;;;;;;;;;;37.35;20.78;99610.16;4320945;33;19992;-84
2022/07/29 12:56:43;;;;;;;;;;;;;;;37.28;19.88;99614.47;4309629;33;20058;-82
2022/07/29 12:59:19;;;;;;;;;;;;;;;37.48;19.83;99615.22;4305767;33;19972;-81
2022/07/29 13:01:49;;;;;;;;;;;;;;;37.26;19.51;99607.53;4313722;33;20043;-81
2022/07/29 13:04:26;;;;;;;;;;;;;;;37.38;19.26;99609.84;4315975;33;20439;-83